Time;durP1;ratioP1;P1;durP2;ratioP2;P2;SDS_P1;SDS_P2;PMS_P1;PMS_P2;Temp;Humidity;BMP_temperature;BMP_pressure;BME280_temperature;BME280_humidity;BME280_pressure;Samples;Min_cycle;Max_cycle;Signal;HPM_P1;HPM_P2
2023/09/19 00:01:13;;;;;;;1999.90;999.90;;;13.20;99.90;;;;;;4971646;28;20108;-66
2023/09/19 00:03:41;;;;;;;1999.90;999.90;;;13.30;99.90;;;;;;4983036;28;20053;-66
2023/09/19 00:06:07;;;;;;;1999.90;999.90;;;13.20;99.90;;;;;;4986114;28;20050;-66
2023/09/19 00:08:34;;;;;;;1999.90;999.90;;;13.20;99.90;;;;;;4977382;28;20125;-66
2023/09/19 00:11:05;;;;;;;1999.90;999.90;;;13.20;99.90;;;;;;4982742;28;20566;-66
2023/09/19 00:13:32;;;;;;;1999.90;999.90;;;13.20;99.90;;;;;;4978667;28;20089;-66
2023/09/19 00:15:58;;;;;;;1999.90;999.90;;;13.10;99.90;;;;;;4995256;28;20038;-66
2023/09/19 00:18:32;;;;;;;1999.90;999.90;;;13.10;99.90;;;;;;4962820;28;20046;-65
2023/09/19 00:21:01;;;;;;;1999.90;999.90;;;13.10;99.90;;;;;;4972704;28;20086;-66
2023/09/19 00:23:28;;;;;;;1999.90;999.90;;;13.00;99.90;;;;;;5009135;28;20072;-66
2023/09/19 00:25:58;;;;;;;1999.90;999.90;;;13.00;99.90;;;;;;4980454;28;20117;-66
2023/09/19 00:28:23;;;;;;;1999.90;999.90;;;13.00;99.90;;;;;;4970352;28;20416;-66
2023/09/19 00:30:51;;;;;;;1999.90;999.90;;;13.00;99.90;;;;;;4979957;28;20038;-65
2023/09/19 00:33:19;;;;;;;1999.90;999.90;;;12.90;99.90;;;;;;4979436;28;20026;-66
2023/09/19 00:35:51;;;;;;;1999.90;999.90;;;12.90;99.90;;;;;;4982417;28;20073;-66
2023/09/19 00:38:21;;;;;;;1999.90;999.90;;;12.80;99.90;;;;;;4979401;28;20090;-66
2023/09/19 00:40:47;;;;;;;1999.90;999.90;;;12.80;99.90;;;;;;5011749;28;20511;-65
2023/09/19 00:43:13;;;;;;;1999.90;999.90;;;12.80;99.90;;;;;;4982193;28;20049;-66
2023/09/19 00:45:42;;;;;;;1999.90;999.90;;;12.70;99.90;;;;;;5008654;28;20038;-66
2023/09/19 00:48:09;;;;;;;1999.90;999.90;;;12.70;99.90;;;;;;5006675;28;20062;-66
2023/09/19 00:50:35;;;;;;;1999.90;999.90;;;12.70;99.90;;;;;;4966697;28;20039;-66
2023/09/19 00:53:05;;;;;;;1999.90;999.90;;;12.60;99.90;;;;;;4978300;28;20397;-66
2023/09/19 00:55:34;;;;;;;1999.90;999.90;;;12.60;99.90;;;;;;4969397;28;20057;-66
2023/09/19 00:58:00;;;;;;;1999.90;999.90;;;12.50;99.90;;;;;;4986056;28;20041;-66
2023/09/19 01:00:26;;;;;;;1999.90;999.90;;;12.50;99.90;;;;;;4961420;28;20051;-66
2023/09/19 01:02:52;;;;;;;1999.90;999.90;;;12.50;99.90;;;;;;4982143;28;20057;-66
2023/09/19 01:05:18;;;;;;;1999.90;999.90;;;12.50;99.90;;;;;;4973656;28;20091;-66
2023/09/19 01:07:44;;;;;;;1999.90;999.90;;;12.60;99.90;;;;;;4977619;28;20050;-66
2023/09/19 01:10:15;;;;;;;1999.90;999.90;;;12.60;99.90;;;;;;4981119;28;20060;-66
2023/09/19 01:13:18;;;;;;;1999.90;999.90;;;12.60;99.90;;;;;;4988930;28;20058;-66
2023/09/19 01:16:06;;;;;;;1999.90;999.90;;;12.60;99.90;;;;;;4982568;28;20122;-66
2023/09/19 01:18:59;;;;;;;1999.90;999.90;;;12.60;99.90;;;;;;4987317;28;20050;-66
2023/09/19 01:21:34;;;;;;;1999.90;999.90;;;12.70;99.90;;;;;;4976628;28;20117;-65
2023/09/19 01:24:08;;;;;;;1999.90;999.90;;;12.70;99.90;;;;;;4980793;28;20181;-66
2023/09/19 01:26:39;;;;;;;;;;;12.70;99.90;;;;;;4984283;28;20038;-66
2023/09/19 01:29:34;;;;;;;1999.90;999.90;;;12.70;99.90;;;;;;4984075;28;19933;-66
2023/09/19 01:32:04;;;;;;;1999.90;999.90;;;12.60;99.90;;;;;;4979777;28;20054;-66
2023/09/19 01:34:49;;;;;;;1999.90;999.90;;;12.60;99.90;;;;;;4981401;28;20050;-66
2023/09/19 01:37:25;;;;;;;1999.90;999.90;;;12.60;99.90;;;;;;4978127;28;20046;-65
2023/09/19 01:40:20;;;;;;;1999.90;999.90;;;12.60;99.90;;;;;;4979684;28;20502;-66
2023/09/19 01:43:21;;;;;;;1999.90;999.90;;;12.50;99.90;;;;;;4974340;28;20058;-65
2023/09/19 01:45:59;;;;;;;1999.90;999.90;;;12.50;99.90;;;;;;4982382;28;20046;-66
2023/09/19 01:48:49;;;;;;;1999.90;999.90;;;12.40;99.90;;;;;;4980418;28;20121;-66
2023/09/19 01:51:22;;;;;;;1999.90;999.90;;;12.40;99.90;;;;;;4976184;28;20287;-66
2023/09/19 01:53:56;;;;;;;1999.90;999.90;;;12.40;99.90;;;;;;4981161;28;20483;-66
2023/09/19 01:56:40;;;;;;;1999.90;999.90;;;12.30;99.90;;;;;;4972985;28;20050;-66
2023/09/19 01:59:21;;;;;;;1999.90;999.90;;;12.30;99.90;;;;;;4973898;28;20152;-66
2023/09/19 02:01:47;;;;;;;1999.90;999.90;;;12.30;99.90;;;;;;4987293;28;20110;-66
2023/09/19 02:04:13;;;;;;;1999.90;999.90;;;12.30;99.90;;;;;;4985945;28;20038;-66
2023/09/19 02:06:47;;;;;;;1999.90;999.90;;;12.30;99.90;;;;;;5017961;28;20157;-66
2023/09/19 02:09:14;;;;;;;1999.90;999.90;;;12.30;99.90;;;;;;4980934;28;20039;-66
2023/09/19 02:11:40;;;;;;;1999.90;999.90;;;12.30;99.90;;;;;;4980705;28;20121;-66
2023/09/19 02:14:08;;;;;;;1999.90;999.90;;;12.30;99.90;;;;;;4993050;28;20054;-66
2023/09/19 02:16:34;;;;;;;1999.90;999.90;;;12.20;99.90;;;;;;4983229;28;20050;-66
2023/09/19 02:19:00;;;;;;;1999.90;999.90;;;12.20;99.90;;;;;;4974413;28;20157;-66
2023/09/19 02:21:29;;;;;;;1999.90;999.90;;;12.20;99.90;;;;;;4974308;28;20150;-66
2023/09/19 02:23:55;;;;;;;1999.90;999.90;;;12.20;99.90;;;;;;4983149;28;20050;-66
2023/09/19 02:26:21;;;;;;;1999.90;999.90;;;12.20;99.90;;;;;;4985951;28;20042;-66
2023/09/19 02:28:47;;;;;;;1999.90;999.90;;;12.20;99.90;;;;;;4977917;28;20042;-67
2023/09/19 02:31:13;;;;;;;1999.90;999.90;;;12.20;99.90;;;;;;4982628;28;20046;-66
2023/09/19 02:33:39;;;;;;;1999.90;999.90;;;12.20;99.90;;;;;;5025795;28;20034;-66
2023/09/19 02:36:05;;;;;;;1999.90;999.90;;;12.20;99.90;;;;;;5037858;28;20061;-66
2023/09/19 02:38:30;;;;;;;1999.90;999.90;;;12.20;99.90;;;;;;4982301;28;20107;-66
2023/09/19 02:40:56;;;;;;;1999.90;999.90;;;12.10;99.90;;;;;;5019351;28;20058;-66
2023/09/19 02:43:22;;;;;;;1999.90;999.90;;;12.00;99.90;;;;;;4986855;28;20563;-66
2023/09/19 02:45:55;;;;;;;1999.90;999.90;;;12.00;99.90;;;;;;4981730;28;20042;-66
2023/09/19 02:48:20;;;;;;;1999.90;999.90;;;12.00;99.90;;;;;;4981809;28;20042;-66
2023/09/19 02:50:49;;;;;;;1999.90;999.90;;;12.00;99.90;;;;;;4981743;28;20100;-66
2023/09/19 02:53:15;;;;;;;1999.90;999.90;;;12.00;99.90;;;;;;4980242;28;20720;-66
2023/09/19 02:55:40;;;;;;;1999.90;999.90;;;12.00;99.90;;;;;;4984642;28;20125;-66
2023/09/19 02:58:14;;;;;;;1999.90;999.90;;;12.00;99.90;;;;;;4987615;28;20042;-66
2023/09/19 03:00:42;;;;;;;1999.90;999.90;;;12.00;99.90;;;;;;4983739;28;20050;-66
2023/09/19 03:03:08;;;;;;;1999.90;999.90;;;11.90;99.90;;;;;;4977872;28;20038;-65
2023/09/19 03:05:34;;;;;;;1999.90;999.90;;;11.90;99.90;;;;;;4987987;28;20449;-66
2023/09/19 03:08:00;;;;;;;1999.90;999.90;;;12.00;99.90;;;;;;4981423;28;20084;-66
2023/09/19 03:10:27;;;;;;;1999.90;999.90;;;11.90;99.90;;;;;;4977384;28;20038;-66
2023/09/19 03:12:53;;;;;;;1999.90;999.90;;;12.00;99.90;;;;;;4985701;28;20122;-66
2023/09/19 03:15:19;;;;;;;1999.90;999.90;;;11.90;99.90;;;;;;4971154;28;20046;-66
2023/09/19 03:17:47;;;;;;;1999.90;999.90;;;12.00;99.90;;;;;;5000520;28;20509;-66
2023/09/19 03:20:13;;;;;;;1999.90;999.90;;;12.00;99.90;;;;;;4984888;28;20046;-66
2023/09/19 03:22:40;;;;;;;1999.90;999.90;;;12.00;99.90;;;;;;4983202;28;20156;-66
2023/09/19 03:25:07;;;;;;;1999.90;999.90;;;12.00;99.90;;;;;;4983557;28;20054;-66
2023/09/19 03:27:37;;;;;;;1999.90;999.90;;;12.00;99.90;;;;;;5019271;28;20510;-66
2023/09/19 03:30:13;;;;;;;1999.90;999.90;;;12.00;99.90;;;;;;4982942;28;20512;-66
2023/09/19 03:32:49;;;;;;;1999.90;999.90;;;12.00;99.90;;;;;;5011724;28;20089;-66
2023/09/19 03:35:16;;;;;;;1999.90;999.90;;;11.90;99.90;;;;;;4970665;28;20055;-66
2023/09/19 03:37:42;;;;;;;1999.90;999.90;;;11.90;99.90;;;;;;4982840;28;20042;-66
2023/09/19 03:40:10;;;;;;;1999.90;999.90;;;11.90;99.90;;;;;;4979855;28;20065;-66
2023/09/19 03:42:41;;;;;;;1999.90;999.90;;;11.90;99.90;;;;;;4978064;28;20058;-66
2023/09/19 03:45:12;;;;;;;1999.90;999.90;;;11.90;99.90;;;;;;4975626;28;20034;-66
2023/09/19 03:47:39;;;;;;;1999.90;999.90;;;11.90;99.90;;;;;;4989300;28;20068;-66
2023/09/19 03:50:10;;;;;;;1999.90;999.90;;;11.80;99.90;;;;;;4985309;28;20321;-66
2023/09/19 03:52:36;;;;;;;1999.90;999.90;;;11.90;99.90;;;;;;4985964;28;20514;-66
2023/09/19 03:55:05;;;;;;;1999.90;999.90;;;11.90;99.90;;;;;;5011376;28;20089;-66
2023/09/19 03:57:31;;;;;;;1999.90;999.90;;;11.90;99.90;;;;;;4979502;28;20121;-66
2023/09/19 03:59:56;;;;;;;1999.90;999.90;;;12.00;99.90;;;;;;4982171;28;20137;-66
2023/09/19 04:02:24;;;;;;;1999.90;999.90;;;12.10;99.90;;;;;;4985979;28;20088;-66
2023/09/19 04:04:50;;;;;;;1999.90;999.90;;;12.20;99.90;;;;;;4958876;28;20122;-66
2023/09/19 04:07:16;;;;;;;1999.90;999.90;;;12.30;99.90;;;;;;4985656;28;20481;-66
2023/09/19 04:09:42;;;;;;;1999.90;999.90;;;12.30;99.90;;;;;;4973808;28;20050;-66
2023/09/19 04:12:11;;;;;;;1999.90;999.90;;;12.40;99.90;;;;;;4982138;28;20477;-66
2023/09/19 04:14:37;;;;;;;1999.90;999.90;;;12.40;99.90;;;;;;4985746;28;20091;-66
2023/09/19 04:17:03;;;;;;;1999.90;999.90;;;12.40;99.90;;;;;;4978981;28;20042;-66
2023/09/19 04:19:28;;;;;;;1999.90;999.90;;;12.50;99.90;;;;;;4981441;28;20114;-66
2023/09/19 04:21:54;;;;;;;1999.90;999.90;;;12.50;99.90;;;;;;4976004;28;20046;-66
2023/09/19 04:24:20;;;;;;;1999.90;999.90;;;12.50;99.90;;;;;;4986986;28;20141;-66
2023/09/19 04:26:45;;;;;;;1999.90;999.90;;;12.60;99.90;;;;;;5006028;28;20050;-66
2023/09/19 04:29:13;;;;;;;1999.90;999.90;;;12.60;99.90;;;;;;4982311;28;20153;-66
2023/09/19 04:31:40;;;;;;;1999.90;999.90;;;12.60;99.90;;;;;;4995329;28;20043;-66
2023/09/19 04:34:10;;;;;;;1999.90;999.90;;;12.60;99.90;;;;;;4976364;28;20498;-66
2023/09/19 04:36:36;;;;;;;1999.90;999.90;;;12.60;99.90;;;;;;4985506;28;20121;-66
2023/09/19 04:39:05;;;;;;;1999.90;999.90;;;12.60;99.90;;;;;;4985677;28;20072;-66
2023/09/19 04:41:31;;;;;;;1999.90;999.90;;;12.60;99.90;;;;;;4986556;28;20059;-66
2023/09/19 04:43:56;;;;;;;1999.90;999.90;;;12.70;99.90;;;;;;5017840;28;20475;-66
2023/09/19 04:46:22;;;;;;;1999.90;999.90;;;12.70;99.90;;;;;;5013908;28;20042;-66
2023/09/19 04:48:47;;;;;;;1999.90;999.90;;;12.70;99.90;;;;;;5015736;28;20046;-66
2023/09/19 04:51:15;;;;;;;1999.90;999.90;;;12.70;99.90;;;;;;5016034;28;20509;-66
2023/09/19 04:53:41;;;;;;;1999.90;999.90;;;12.70;99.90;;;;;;4981839;28;20047;-66
2023/09/19 04:56:07;;;;;;;1999.90;999.90;;;12.70;99.90;;;;;;4981304;28;20062;-66
2023/09/19 04:58:33;;;;;;;1999.90;999.90;;;12.70;99.90;;;;;;4985099;28;20050;-66
2023/09/19 05:00:59;;;;;;;1999.90;999.90;;;12.70;99.90;;;;;;4984433;28;20042;-66
2023/09/19 05:03:25;;;;;;;1999.90;999.90;;;12.70;99.90;;;;;;4984107;28;20034;-66
2023/09/19 05:05:50;;;;;;;1999.90;999.90;;;12.70;99.90;;;;;;4978954;28;20498;-66
2023/09/19 05:08:16;;;;;;;1999.90;999.90;;;12.70;99.90;;;;;;4985982;28;20034;-66
2023/09/19 05:10:42;;;;;;;1999.90;999.90;;;12.70;99.90;;;;;;4986316;28;20045;-66
2023/09/19 05:13:07;;;;;;;1999.90;999.90;;;12.70;99.90;;;;;;5003951;28;20077;-66
2023/09/19 05:15:35;;;;;;;1999.90;999.90;;;12.70;99.90;;;;;;4966978;28;20045;-66
2023/09/19 05:18:01;;;;;;;1999.90;999.90;;;12.80;99.90;;;;;;4978609;28;20046;-66
2023/09/19 05:20:30;;;;;;;1999.90;999.90;;;12.80;99.90;;;;;;5015838;27;20057;-67
2023/09/19 05:23:05;;;;;;;1999.90;999.90;;;12.80;99.90;;;;;;4980958;28;20122;-66
2023/09/19 05:25:39;;;;;;;1999.90;999.90;;;12.90;99.90;;;;;;4975358;28;20097;-66
2023/09/19 05:28:10;;;;;;;1999.90;999.90;;;12.90;99.90;;;;;;4972434;28;20050;-66
2023/09/19 05:30:38;;;;;;;1999.90;999.90;;;12.90;99.90;;;;;;4988266;28;20046;-66
2023/09/19 05:33:04;;;;;;;1999.90;999.90;;;12.90;99.90;;;;;;4999044;28;20066;-66
2023/09/19 05:35:31;;;;;;;1999.90;999.90;;;13.00;99.90;;;;;;4985292;28;20073;-66
2023/09/19 05:37:57;;;;;;;1999.90;999.90;;;13.00;99.90;;;;;;4997147;28;20038;-67
2023/09/19 05:40:24;;;;;;;1999.90;999.90;;;13.00;99.90;;;;;;4979350;28;20461;-66
2023/09/19 05:42:53;;;;;;;1999.90;999.90;;;13.10;99.90;;;;;;4990066;28;20045;-66
2023/09/19 05:45:22;;;;;;;1999.90;999.90;;;13.10;99.90;;;;;;4981615;28;20058;-66
2023/09/19 05:47:52;;;;;;;1999.90;999.90;;;13.10;99.90;;;;;;4981980;28;20122;-66
2023/09/19 05:50:18;;;;;;;1999.90;999.90;;;13.10;99.90;;;;;;4988298;28;20569;-66
2023/09/19 05:52:52;;;;;;;1999.90;999.90;;;13.10;99.90;;;;;;4985141;28;20046;-66
2023/09/19 05:55:17;;;;;;;1999.90;999.90;;;13.10;99.90;;;;;;4978099;28;20050;-66
2023/09/19 05:57:43;;;;;;;1999.90;999.90;;;13.10;99.90;;;;;;4974321;28;20115;-66
2023/09/19 06:00:12;;;;;;;1999.90;999.90;;;13.10;99.90;;;;;;5001178;28;20047;-66
2023/09/19 06:02:37;;;;;;;1999.90;999.90;;;13.10;99.90;;;;;;4973111;28;20108;-66
2023/09/19 06:05:06;;;;;;;1999.90;999.90;;;13.20;99.90;;;;;;4977070;28;20050;-66
2023/09/19 06:07:36;;;;;;;1999.90;999.90;;;13.20;99.90;;;;;;4981170;28;20115;-66
2023/09/19 06:10:06;;;;;;;1999.90;999.90;;;13.20;99.90;;;;;;4982851;28;20047;-66
2023/09/19 06:12:37;;;;;;;1999.90;999.90;;;13.30;99.90;;;;;;4978717;28;20085;-66
2023/09/19 06:15:08;;;;;;;1999.90;999.90;;;13.30;99.90;;;;;;4988669;28;20081;-66
2023/09/19 06:17:37;;;;;;;1999.90;999.90;;;13.30;99.90;;;;;;4981450;28;20038;-66
2023/09/19 06:20:12;;;;;;;1999.90;999.90;;;13.30;99.90;;;;;;4985591;28;20041;-66
2023/09/19 06:22:39;;;;;;;1999.90;999.90;;;13.40;99.90;;;;;;4973460;28;20066;-66
2023/09/19 06:25:04;;;;;;;1999.90;999.90;;;13.40;99.90;;;;;;4982721;28;20042;-66
2023/09/19 06:27:30;;;;;;;1999.90;999.90;;;13.50;99.90;;;;;;4988878;28;20038;-66
2023/09/19 06:29:55;;;;;;;1999.90;999.90;;;13.50;99.90;;;;;;5003596;28;20041;-66
2023/09/19 06:32:27;;;;;;;1999.90;999.90;;;13.60;99.90;;;;;;4980392;28;20188;-66
2023/09/19 06:34:54;;;;;;;1999.90;999.90;;;13.60;99.90;;;;;;4990819;28;20406;-66
2023/09/19 06:37:20;;;;;;;1999.90;999.90;;;13.60;99.90;;;;;;4997359;28;20104;-66
2023/09/19 06:39:49;;;;;;;1999.90;999.90;;;13.70;99.90;;;;;;4977816;28;20066;-66
2023/09/19 06:42:17;;;;;;;1999.90;999.90;;;13.70;99.90;;;;;;4987379;28;20399;-66
2023/09/19 06:44:43;;;;;;;1999.90;999.90;;;13.70;99.90;;;;;;4987373;28;20072;-66
2023/09/19 06:47:09;;;;;;;1999.90;999.90;;;13.80;99.90;;;;;;4985596;28;20041;-66
2023/09/19 06:49:38;;;;;;;1999.90;999.90;;;13.80;99.90;;;;;;4988436;28;20097;-66
2023/09/19 06:52:04;;;;;;;1999.90;999.90;;;13.90;99.90;;;;;;4983883;28;20505;-66
2023/09/19 06:54:31;;;;;;;1999.90;999.90;;;14.00;99.90;;;;;;4981408;28;20553;-66
2023/09/19 06:56:59;;;;;;;1999.90;999.90;;;14.10;99.90;;;;;;4987617;28;20052;-66
2023/09/19 06:59:25;;;;;;;1999.90;999.90;;;14.20;99.90;;;;;;4976317;28;20050;-66
2023/09/19 07:01:51;;;;;;;1999.90;999.90;;;14.30;99.90;;;;;;4978321;28;20380;-66
2023/09/19 07:04:19;;;;;;;1999.90;999.90;;;14.30;99.90;;;;;;4971126;28;20038;-66
2023/09/19 07:06:51;;;;;;;1999.90;999.90;;;14.40;99.90;;;;;;4983163;28;20046;-66
2023/09/19 07:09:19;;;;;;;1999.90;999.90;;;14.40;99.90;;;;;;4970036;28;20070;-66
2023/09/19 07:11:45;;;;;;;1999.90;999.90;;;14.60;99.90;;;;;;4980441;28;20058;-66
2023/09/19 07:14:13;;;;;;;1999.90;999.90;;;14.60;99.90;;;;;;5028357;28;20034;-66
2023/09/19 07:16:40;;;;;;;1999.90;999.90;;;14.70;99.90;;;;;;4983725;28;20047;-66
2023/09/19 07:19:06;;;;;;;1999.90;999.90;;;14.80;99.90;;;;;;4973629;28;20623;-66
2023/09/19 07:21:38;;;;;;;1999.90;999.90;;;14.90;99.90;;;;;;4984810;28;20046;-66
2023/09/19 07:24:08;;;;;;;1999.90;999.90;;;15.00;99.90;;;;;;4972281;28;20042;-66
2023/09/19 07:26:34;;;;;;;1999.90;999.90;;;15.10;99.90;;;;;;5007455;28;20046;-66
2023/09/19 07:29:02;;;;;;;1999.90;999.90;;;15.20;99.90;;;;;;4981600;28;20066;-66
2023/09/19 07:31:28;;;;;;;1999.90;999.90;;;15.10;99.90;;;;;;4970142;28;20521;-66
2023/09/19 07:33:56;;;;;;;1999.90;999.90;;;15.10;99.90;;;;;;4981713;28;20061;-66
2023/09/19 07:36:24;;;;;;;1999.90;999.90;;;15.10;99.90;;;;;;4992119;28;20064;-66
2023/09/19 07:38:49;;;;;;;1999.90;999.90;;;15.10;99.90;;;;;;5002479;28;20042;-67
2023/09/19 07:41:15;;;;;;;1999.90;999.90;;;15.10;99.90;;;;;;4983464;28;20051;-68
2023/09/19 07:43:41;;;;;;;1999.90;999.90;;;15.10;99.90;;;;;;4977301;28;20062;-68
2023/09/19 07:46:08;;;;;;;1999.90;999.90;;;15.20;99.90;;;;;;4975216;28;20062;-67
2023/09/19 07:48:38;;;;;;;1999.90;999.90;;;15.20;99.90;;;;;;4974517;28;20047;-67
2023/09/19 07:51:07;;;;;;;1999.90;999.90;;;15.30;99.90;;;;;;4991603;28;20036;-67
2023/09/19 07:53:34;;;;;;;1999.90;999.90;;;15.30;99.90;;;;;;4979016;28;20037;-67
2023/09/19 07:56:03;;;;;;;1999.90;999.90;;;15.50;99.90;;;;;;4967411;28;20080;-67
2023/09/19 07:58:30;;;;;;;1999.90;999.90;;;15.60;99.90;;;;;;4978486;28;20407;-67
2023/09/19 08:00:56;;;;;;;1999.90;999.90;;;15.60;99.90;;;;;;4996891;28;20042;-67
2023/09/19 08:03:22;;;;;;;1999.90;999.90;;;15.70;99.90;;;;;;4987556;28;20049;-67
2023/09/19 08:05:48;;;;;;;1999.90;999.90;;;15.70;99.90;;;;;;4968480;28;20108;-67
2023/09/19 08:08:14;;;;;;;1999.90;999.90;;;15.70;99.90;;;;;;4978411;28;20392;-67
2023/09/19 08:10:42;;;;;;;1999.90;999.90;;;15.70;99.90;;;;;;4972895;28;20042;-67
2023/09/19 08:13:11;;;;;;;1999.90;999.90;;;15.70;99.90;;;;;;4987446;28;20053;-67
2023/09/19 08:15:44;;;;;;;1999.90;999.90;;;15.70;99.90;;;;;;4988361;28;20075;-67
2023/09/19 08:18:11;;;;;;;1999.90;999.90;;;15.80;99.90;;;;;;5008415;27;20133;-67
2023/09/19 08:20:37;;;;;;;1999.90;999.90;;;15.70;99.90;;;;;;4971572;28;20468;-67
2023/09/19 08:23:03;;;;;;;1999.90;999.90;;;15.60;99.90;;;;;;4976266;28;20129;-67
2023/09/19 08:25:29;;;;;;;1999.90;999.90;;;15.60;99.90;;;;;;4985815;28;20038;-67
2023/09/19 08:27:57;;;;;;;1999.90;999.90;;;15.60;99.90;;;;;;4979305;28;20051;-67
2023/09/19 08:30:24;;;;;;;1999.90;999.90;;;15.60;99.90;;;;;;4985024;28;20122;-67
2023/09/19 08:33:10;;;;;;;1999.90;999.90;;;15.60;99.90;;;;;;4974622;28;20043;-67
2023/09/19 08:35:37;;;;;;;1999.90;999.90;;;15.70;99.90;;;;;;4981806;28;20151;-68
2023/09/19 08:38:04;;;;;;;1999.90;999.90;;;15.90;99.90;;;;;;4976150;28;20448;-67
2023/09/19 08:40:36;;;;;;;1999.90;999.90;;;16.00;99.90;;;;;;4996501;28;20062;-67
2023/09/19 08:43:02;;;;;;;1999.90;999.90;;;16.10;99.90;;;;;;4982337;28;20555;-67
2023/09/19 08:45:28;;;;;;;1999.90;999.90;;;16.20;99.90;;;;;;4975564;28;20043;-68
2023/09/19 08:48:03;;;;;;;1999.90;999.90;;;16.30;99.90;;;;;;4980344;28;20552;-67
2023/09/19 08:50:30;;;;;;;1999.90;999.90;;;16.50;99.90;;;;;;4976599;28;20042;-67
2023/09/19 08:53:05;;;;;;;1999.90;999.90;;;16.70;99.90;;;;;;4979652;28;20050;-67
2023/09/19 08:55:33;;;;;;;1999.90;999.90;;;17.00;99.90;;;;;;4980259;28;20054;-67
2023/09/19 08:58:06;;;;;;;1999.90;999.90;;;17.10;99.90;;;;;;4976446;28;20073;-67
2023/09/19 09:00:34;;;;;;;1999.90;999.90;;;17.20;99.90;;;;;;4977868;28;20046;-67
2023/09/19 09:03:02;;;;;;;1999.90;999.90;;;17.20;99.90;;;;;;4977522;28;20043;-67
2023/09/19 09:05:28;;;;;;;1999.90;999.90;;;17.20;99.90;;;;;;4977838;28;20070;-67
2023/09/19 09:07:56;;;;;;;1999.90;999.90;;;17.20;99.90;;;;;;4974222;28;20422;-67
2023/09/19 09:10:22;;;;;;;1999.90;999.90;;;17.20;99.90;;;;;;4976412;28;20054;-67
2023/09/19 09:12:52;;;;;;;1999.90;999.90;;;17.20;99.90;;;;;;4972174;28;20050;-67
2023/09/19 09:15:21;;;;;;;1999.90;999.90;;;17.20;99.90;;;;;;4971445;28;20038;-68
2023/09/19 09:17:50;;;;;;;1999.90;999.90;;;17.40;99.90;;;;;;4973472;28;20099;-67
2023/09/19 09:20:18;;;;;;;1999.90;999.90;;;17.40;99.90;;;;;;4976764;28;20062;-67
2023/09/19 09:23:00;;;;;;;1999.90;999.90;;;17.30;99.90;;;;;;4972799;28;20058;-68
2023/09/19 09:25:59;;;;;;;1999.90;999.90;;;17.20;99.90;;;;;;4979375;28;20091;-67
2023/09/19 09:28:27;;;;;;;1999.90;999.90;;;17.10;99.90;;;;;;4977511;28;20047;-67
2023/09/19 09:30:54;;;;;;;1999.90;999.90;;;17.30;99.90;;;;;;4986622;28;20121;-68
2023/09/19 09:33:21;;;;;;;1999.90;999.90;;;17.60;99.90;;;;;;4980198;28;20038;-67
2023/09/19 09:35:52;;;;;;;1999.90;999.90;;;17.80;99.90;;;;;;4980023;28;20121;-67
2023/09/19 09:38:19;;;;;;;1999.90;999.90;;;17.90;99.90;;;;;;4985762;28;20035;-69
2023/09/19 09:40:58;;;;;;;1999.90;999.90;;;17.90;99.90;;;;;;4977877;28;20059;-67
2023/09/19 09:43:40;;;;;;;1999.90;999.90;;;18.00;99.90;;;;;;4977843;28;20050;-67
2023/09/19 09:51:39;;;;;;;1999.90;999.90;;;18.10;99.90;;;;;;4983722;28;20053;-67
2023/09/19 09:54:16;;;;;;;1999.90;999.90;;;18.10;99.90;;;;;;4973111;28;20085;-67
2023/09/19 09:56:59;;;;;;;1999.90;999.90;;;18.20;99.90;;;;;;4963520;28;20505;-67
2023/09/19 10:00:15;;;;;;;1074.07;570.35;;;18.10;99.90;;;;;;4976549;28;20081;-67
2023/09/19 10:02:41;;;;;;;1999.90;999.90;;;18.10;99.90;;;;;;4951948;28;20054;-67
2023/09/19 10:05:22;;;;;;;1999.90;999.90;;;18.20;99.90;;;;;;4986214;28;20134;-67
2023/09/19 10:07:53;;;;;;;1999.90;999.90;;;18.40;99.90;;;;;;4979269;28;20046;-67
2023/09/19 10:10:43;;;;;;;1999.90;999.90;;;18.60;99.90;;;;;;4992393;28;20042;-67
2023/09/19 10:13:13;;;;;;;145.18;138.40;;;18.80;99.90;;;;;;4986449;28;20070;-67
2023/09/19 10:15:46;;;;;;;169.40;161.25;;;18.80;99.90;;;;;;4997409;28;20491;-67
2023/09/19 10:18:18;;;;;;;147.82;141.25;;;18.80;99.90;;;;;;4987082;28;20053;-67
2023/09/19 10:20:45;;;;;;;138.45;131.45;;;18.70;99.90;;;;;;4986435;28;20045;-68
2023/09/19 10:23:20;;;;;;;1114.20;608.85;;;18.60;99.90;;;;;;4983063;28;20363;-67
2023/09/19 10:25:47;;;;;;;202.23;192.77;;;18.50;99.90;;;;;;4994535;28;20443;-67
2023/09/19 10:28:14;;;;;;;179.75;171.05;;;18.60;99.90;;;;;;4976125;28;20066;-67
2023/09/19 10:30:44;;;;;;;279.77;266.63;;;18.80;99.90;;;;;;4977940;28;20085;-69
2023/09/19 10:33:12;;;;;;;226.30;216.10;;;19.00;99.90;;;;;;4975377;28;20039;-68
2023/09/19 10:35:45;;;;;;;253.18;241.45;;;19.20;99.90;;;;;;4982987;28;20046;-67
2023/09/19 10:38:14;;;;;;;287.67;274.20;;;19.30;99.90;;;;;;4984547;28;20407;-68
2023/09/19 10:40:43;;;;;;;280.90;267.85;;;19.40;99.90;;;;;;4971538;28;20556;-67
2023/09/19 10:43:18;;;;;;;172.82;164.90;;;19.40;99.90;;;;;;4972290;28;20100;-67
2023/09/19 10:45:45;;;;;;;167.48;159.20;;;19.40;99.90;;;;;;4976555;28;20113;-67
2023/09/19 10:48:12;;;;;;;179.80;171.73;;;19.20;99.90;;;;;;4977512;28;20043;-67
2023/09/19 10:51:05;;;;;;;160.95;153.43;;;18.90;99.90;;;;;;4974238;28;20070;-67
2023/09/19 10:53:46;;;;;;;249.07;237.60;;;18.60;99.90;;;;;;4967489;28;20568;-67
2023/09/19 10:56:23;;;;;;;249.68;237.90;;;18.60;99.90;;;;;;4980882;28;20035;-68
2023/09/19 10:58:49;;;;;;;175.20;166.70;;;18.60;99.90;;;;;;4999054;28;20046;-67
2023/09/19 11:01:15;;;;;;;197.73;187.10;;;18.60;99.90;;;;;;4979350;28;20035;-67
2023/09/19 11:03:45;;;;;;;187.68;179.05;;;18.40;99.90;;;;;;4979329;28;20046;-67
2023/09/19 11:06:18;;;;;;;200.10;190.75;;;18.20;99.90;;;;;;4998986;28;20447;-67
2023/09/19 11:08:56;;;;;;;151.93;144.80;;;18.00;99.90;;;;;;4967962;28;20500;-67
2023/09/19 11:11:42;;;;;;;154.65;145.82;;;18.00;99.90;;;;;;4970613;28;20396;-67
2023/09/19 11:14:23;;;;;;;183.80;175.30;;;18.00;99.90;;;;;;4970019;28;20085;-67
2023/09/19 11:17:21;;;;;;;178.77;169.90;;;18.00;99.90;;;;;;4977164;28;20086;-67
2023/09/19 11:22:58;;;;;;;137.90;131.18;;;17.90;99.90;;;;;;4976985;28;20058;-67
2023/09/19 11:25:30;;;;;;;102.88;98.07;;;17.90;99.90;;;;;;4982518;28;20118;-67
2023/09/19 11:28:08;;;;;;;163.35;155.48;;;18.00;99.90;;;;;;4972271;28;20125;-67
2023/09/19 11:30:38;;;;;;;606.00;350.73;;;18.10;99.90;;;;;;4958065;28;20055;-68
2023/09/19 11:33:31;;;;;;;99.72;94.38;;;18.20;99.90;;;;;;4978500;28;20433;-68
2023/09/19 11:36:15;;;;;;;141.68;134.70;;;18.60;99.90;;;;;;4992822;28;20036;-68
2023/09/19 11:38:49;;;;;;;199.63;190.10;;;18.70;99.90;;;;;;4979412;28;20050;-67
2023/09/19 11:41:38;;;;;;;;;;;18.70;99.90;;;;;;4976399;28;20055;-67
2023/09/19 11:44:09;;;;;;;141.07;133.85;;;18.70;99.90;;;;;;4978223;28;19948;-68
2023/09/19 11:46:52;;;;;;;221.52;211.40;;;18.80;99.90;;;;;;4978364;28;20044;-67
2023/09/19 11:49:21;;;;;;;161.10;153.35;;;18.90;99.90;;;;;;4987027;28;20044;-67
2023/09/19 11:51:50;;;;;;;216.40;206.95;;;18.80;99.90;;;;;;4982592;28;20549;-67
2023/09/19 11:54:18;;;;;;;232.07;221.55;;;18.70;99.90;;;;;;4977123;28;20088;-67
2023/09/19 11:56:45;;;;;;;242.85;231.93;;;18.50;99.90;;;;;;4986980;28;20465;-67
2023/09/19 11:59:11;;;;;;;306.73;285.90;;;18.30;99.90;;;;;;5007145;28;20042;-67
2023/09/19 12:01:43;;;;;;;221.60;211.48;;;18.10;99.90;;;;;;5011899;28;20048;-67
2023/09/19 12:04:11;;;;;;;192.95;183.77;;;18.00;99.90;;;;;;4988667;28;20123;-68
2023/09/19 12:06:38;;;;;;;242.95;229.25;;;18.00;99.90;;;;;;5013054;27;20084;-67
2023/09/19 12:09:10;;;;;;;132.57;126.03;;;18.00;99.90;;;;;;4992323;28;20054;-67
2023/09/19 12:11:43;;;;;;;135.60;128.93;;;18.00;99.90;;;;;;4987233;28;20115;-67
2023/09/19 12:14:09;;;;;;;154.10;146.57;;;18.00;99.90;;;;;;5036423;27;20045;-67
2023/09/19 12:16:36;;;;;;;107.35;102.00;;;18.00;99.90;;;;;;4957892;28;20472;-67
2023/09/19 12:19:24;;;;;;;122.53;116.78;;;17.90;99.90;;;;;;4988931;28;20125;-67
2023/09/19 12:22:04;;;;;;;128.45;122.07;;;17.80;99.90;;;;;;4979221;28;20076;-67
2023/09/19 12:24:30;;;;;;;127.35;121.43;;;17.90;99.90;;;;;;4980954;28;20122;-66